Time;durP1;ratioP1;P1;durP2;ratioP2;P2;SDS_P1;SDS_P2;PMS_P1;PMS_P2;Temp;Humidity;BMP_temperature;BMP_pressure;BME280_temperature;BME280_humidity;BME280_pressure;Samples;Min_cycle;Max_cycle;Signal;HPM_P1;HPM_P2
2022/03/01 00:01:53;;;;;;;;;;;;;;;17.49;25.91;96820.41;10479186;28;1812;-51
2022/03/01 00:06:53;;;;;;;;;;;;;;;17.54;25.91;96820.50;10478146;28;1935;-54
2022/03/01 00:11:55;;;;;;;;;;;;;;;17.56;25.90;96817.63;10460755;28;1886;-53
2022/03/01 00:16:56;;;;;;;;;;;;;;;17.50;25.87;96814.09;10478465;28;1857;-55
2022/03/01 00:21:57;;;;;;;;;;;;;;;17.54;25.82;96817.06;10470317;28;1800;-56
2022/03/01 00:26:57;;;;;;;;;;;;;;;17.54;25.90;96812.63;10457832;28;1819;-55
2022/03/01 00:31:58;;;;;;;;;;;;;;;17.54;25.82;96811.81;10464618;28;1987;-56
2022/03/01 00:36:58;;;;;;;;;;;;;;;17.54;25.91;96809.19;10462465;28;1984;-53
2022/03/01 00:41:58;;;;;;;;;;;;;;;17.54;25.86;96804.75;10469162;28;1940;-56
2022/03/01 00:46:59;;;;;;;;;;;;;;;17.55;25.84;96806.38;10474328;28;1814;-56
2022/03/01 00:51:59;;;;;;;;;;;;;;;17.51;25.78;96805.22;10476276;28;1985;-53
2022/03/01 00:57:00;;;;;;;;;;;;;;;17.55;25.75;96803.75;10486675;28;1816;-55
2022/03/01 01:02:00;;;;;;;;;;;;;;;17.53;25.84;96790.06;10482664;28;1871;-56
2022/03/01 01:07:01;;;;;;;;;;;;;;;17.56;25.74;96784.34;10493874;28;1863;-56
2022/03/01 01:12:01;;;;;;;;;;;;;;;17.53;25.82;96779.59;10492109;28;1906;-58
2022/03/01 01:17:01;;;;;;;;;;;;;;;17.54;25.79;96770.69;10494971;28;1831;-56
2022/03/01 01:27:21;;;;;;;;;;;;;;;17.50;25.64;96782.66;10490593;28;1821;-55
2022/03/01 01:32:21;;;;;;;;;;;;;;;17.54;25.74;96770.69;10487746;28;1915;-56
2022/03/01 01:37:22;;;;;;;;;;;;;;;17.52;25.73;96775.34;10493887;28;1960;-56
2022/03/01 01:42:22;;;;;;;;;;;;;;;17.55;25.69;96766.25;10480966;28;2233;-55
2022/03/01 01:47:22;;;;;;;;;;;;;;;17.56;25.56;96758.13;10485598;28;2174;-56
2022/03/01 01:52:26;;;;;;;;;;;;;;;17.55;25.52;96759.19;10487808;28;1954;-56
2022/03/01 01:57:26;;;;;;;;;;;;;;;17.50;25.62;96756.44;10482256;28;2048;-57
2022/03/01 02:02:27;;;;;;;;;;;;;;;17.56;25.58;96750.28;10467629;28;2201;-56
2022/03/01 02:07:28;;;;;;;;;;;;;;;17.54;25.54;96749.72;10456540;28;1917;-54
2022/03/01 02:12:30;;;;;;;;;;;;;;;17.56;25.57;96739.78;10476857;28;1922;-52
2022/03/01 02:17:30;;;;;;;;;;;;;;;17.51;25.63;96731.84;10473204;28;1880;-56
2022/03/01 02:22:33;;;;;;;;;;;;;;;17.56;25.51;96726.69;10467681;28;1860;-55
2022/03/01 02:27:43;;;;;;;;;;;;;;;17.53;25.69;96724.53;10477462;28;1979;-56
2022/03/01 02:32:56;;;;;;;;;;;;;;;17.55;25.56;96722.47;10460572;28;1971;-56
2022/03/01 02:37:57;;;;;;;;;;;;;;;17.51;25.55;96717.94;10471728;28;1903;-56
2022/03/01 02:42:57;;;;;;;;;;;;;;;17.46;25.49;96721.19;10466801;28;2287;-56
2022/03/01 02:47:58;;;;;;;;;;;;;;;17.55;25.45;96719.06;10471031;28;1937;-55
2022/03/01 02:52:58;;;;;;;;;;;;;;;17.55;25.52;96722.47;10464740;28;1992;-54
2022/03/01 02:57:58;;;;;;;;;;;;;;;17.52;25.50;96717.69;10461922;28;1914;-54
2022/03/01 03:02:59;;;;;;;;;;;;;;;17.53;25.45;96727.16;10462684;28;1960;-53
2022/03/01 03:08:00;;;;;;;;;;;;;;;17.52;25.47;96711.63;10483610;28;2038;-53
2022/03/01 03:13:01;;;;;;;;;;;;;;;17.47;25.56;96714.13;10471868;28;1904;-56
2022/03/01 03:18:03;;;;;;;;;;;;;;;17.55;25.46;96704.13;10483754;28;2080;-55
2022/03/01 03:23:03;;;;;;;;;;;;;;;17.54;25.39;96706.97;10477616;28;1940;-54
2022/03/01 03:28:04;;;;;;;;;;;;;;;17.52;25.42;96704.56;10467142;28;1731;-51
2022/03/01 03:33:04;;;;;;;;;;;;;;;17.51;25.32;96696.94;10468354;28;2394;-51
2022/03/01 03:38:05;;;;;;;;;;;;;;;17.47;25.37;96687.94;10480089;28;1889;-54
2022/03/01 03:43:05;;;;;;;;;;;;;;;17.54;25.32;96697.28;10465433;28;2434;-56
2022/03/01 03:48:05;;;;;;;;;;;;;;;17.50;25.27;96688.28;10449067;28;2421;-54
2022/03/01 03:53:06;;;;;;;;;;;;;;;17.54;25.33;96681.56;10478283;28;2407;-56
2022/03/01 03:58:06;;;;;;;;;;;;;;;17.56;25.25;96681.31;10470939;28;2391;-56
2022/03/01 04:03:07;;;;;;;;;;;;;;;17.50;25.33;96675.19;10459537;28;2016;-55
2022/03/01 04:08:07;;;;;;;;;;;;;;;17.51;25.21;96679.41;10458524;28;1964;-54
2022/03/01 04:13:07;;;;;;;;;;;;;;;17.53;25.32;96685.22;10466879;28;2297;-55
2022/03/01 04:18:08;;;;;;;;;;;;;;;17.51;25.30;96683.84;10462479;28;1948;-54
2022/03/01 04:23:10;;;;;;;;;;;;;;;17.47;25.33;96686.13;10481834;28;2249;-52
2022/03/01 04:28:11;;;;;;;;;;;;;;;17.50;25.23;96682.25;10485045;28;2054;-53
2022/03/01 04:33:11;;;;;;;;;;;;;;;17.54;25.26;96680.75;10481481;28;2138;-57
2022/03/01 04:38:12;;;;;;;;;;;;;;;17.54;25.11;96675.50;10480984;28;1999;-55
2022/03/01 04:43:13;;;;;;;;;;;;;;;17.51;25.21;96674.16;10479775;28;2303;-53
2022/03/01 04:48:13;;;;;;;;;;;;;;;17.54;25.21;96670.25;10470844;28;2359;-55
2022/03/01 04:53:14;;;;;;;;;;;;;;;17.48;25.16;96666.72;10475231;28;2011;-51
2022/03/01 04:58:15;;;;;;;;;;;;;;;17.51;25.14;96660.25;10467024;28;1961;-51
2022/03/01 05:03:15;;;;;;;;;;;;;;;17.53;25.13;96669.50;10471119;28;1978;-54
2022/03/01 05:08:16;;;;;;;;;;;;;;;17.49;25.09;96668.34;10469366;28;2035;-52
2022/03/01 05:13:16;;;;;;;;;;;;;;;17.46;25.17;96676.63;10475098;28;1910;-55
2022/03/01 05:18:17;;;;;;;;;;;;;;;17.48;25.13;96685.06;10474768;28;1979;-53
2022/03/01 05:23:18;;;;;;;;;;;;;;;17.49;25.08;96678.84;10474214;28;1948;-57
2022/03/01 05:28:19;;;;;;;;;;;;;;;17.48;25.11;96679.81;10477663;28;1955;-54
2022/03/01 05:33:19;;;;;;;;;;;;;;;17.50;25.07;96680.41;10412859;22;3301;-48
2022/03/01 05:38:20;;;;;;;;;;;;;;;17.51;25.07;96691.72;10359768;28;2014;-48
2022/03/01 05:43:20;;;;;;;;;;;;;;;17.50;25.04;96700.59;10356049;28;1975;-51
2022/03/01 05:48:21;;;;;;;;;;;;;;;17.47;25.01;96695.78;10362640;28;1923;-50
2022/03/01 05:53:21;;;;;;;;;;;;;;;17.48;25.08;96715.72;10365482;28;1973;-50
2022/03/01 05:58:24;;;;;;;;;;;;;;;17.47;25.03;96722.81;10356570;28;1998;-51
2022/03/01 06:03:25;;;;;;;;;;;;;;;17.48;25.00;96729.63;10353501;28;1900;-48
2022/03/01 06:08:26;;;;;;;;;;;;;;;17.49;25.12;96728.66;10349314;28;1991;-49
2022/03/01 06:13:26;;;;;;;;;;;;;;;17.51;24.95;96723.97;10353688;28;1978;-49
2022/03/01 06:18:27;;;;;;;;;;;;;;;17.45;25.06;96711.75;10374196;28;1887;-48
2022/03/01 06:23:28;;;;;;;;;;;;;;;17.46;24.94;96725.63;10339567;28;1906;-48
2022/03/01 06:28:29;;;;;;;;;;;;;;;17.49;25.08;96733.06;10350033;28;2064;-50
2022/03/01 06:33:30;;;;;;;;;;;;;;;17.48;24.97;96723.59;10339854;28;1977;-51
2022/03/01 06:38:30;;;;;;;;;;;;;;;17.48;24.94;96726.19;10370324;28;2032;-52
2022/03/01 06:43:31;;;;;;;;;;;;;;;17.45;24.88;96735.34;10357522;28;1956;-50
2022/03/01 06:48:31;;;;;;;;;;;;;;;17.45;24.88;96745.03;10377377;28;2106;-52
2022/03/01 06:53:31;;;;;;;;;;;;;;;17.46;24.96;96757.91;10372165;28;1957;-49
2022/03/01 06:58:32;;;;;;;;;;;;;;;17.45;25.04;96761.56;10365363;28;1942;-52
2022/03/01 07:03:34;;;;;;;;;;;;;;;17.46;24.90;96763.13;10355488;28;2193;-51
2022/03/01 07:08:34;;;;;;;;;;;;;;;17.47;24.88;96762.13;10342330;28;1950;-48
2022/03/01 07:13:35;;;;;;;;;;;;;;;17.43;24.99;96753.13;10348122;28;1939;-49
2022/03/01 07:18:36;;;;;;;;;;;;;;;17.47;24.91;96749.03;10339531;28;1937;-49
2022/03/01 07:23:36;;;;;;;;;;;;;;;17.46;24.82;96752.66;10336319;28;1906;-49
2022/03/01 07:28:37;;;;;;;;;;;;;;;17.45;24.99;96761.56;10348191;28;2005;-51
2022/03/01 07:33:39;;;;;;;;;;;;;;;17.51;24.89;96752.00;10332815;28;1915;-53
2022/03/01 07:38:39;;;;;;;;;;;;;;;17.48;24.93;96758.47;10343892;28;1874;-52
2022/03/01 07:43:40;;;;;;;;;;;;;;;17.45;24.96;96751.06;10365017;28;1995;-53
2022/03/01 07:48:41;;;;;;;;;;;;;;;17.48;25.00;96747.97;10362621;28;1925;-54
2022/03/01 07:53:41;;;;;;;;;;;;;;;17.49;24.83;96746.16;10351182;28;1924;-52
2022/03/01 07:58:43;;;;;;;;;;;;;;;17.47;24.91;96748.22;10361017;28;1824;-52
2022/03/01 08:03:43;;;;;;;;;;;;;;;17.50;24.83;96742.53;10355980;28;1829;-52
2022/03/01 08:08:44;;;;;;;;;;;;;;;17.45;24.88;96745.03;10339507;28;1999;-55
2022/03/01 08:13:45;;;;;;;;;;;;;;;17.44;25.04;96741.59;10364012;28;1918;-53
2022/03/01 08:18:46;;;;;;;;;;;;;;;17.49;25.03;96744.38;10359139;28;1837;-50
2022/03/01 08:23:47;;;;;;;;;;;;;;;17.46;24.92;96746.59;10348563;28;1801;-50
2022/03/01 08:28:49;;;;;;;;;;;;;;;17.47;24.95;96749.03;10361539;28;1853;-54
2022/03/01 08:33:50;;;;;;;;;;;;;;;17.44;25.09;96759.94;10339282;28;1952;-52
2022/03/01 08:38:52;;;;;;;;;;;;;;;17.50;25.09;96756.44;10358900;28;1825;-53
2022/03/01 08:43:52;;;;;;;;;;;;;;;17.47;25.13;96758.69;10348841;28;1821;-54
2022/03/01 08:48:53;;;;;;;;;;;;;;;17.45;25.20;96756.31;10370799;28;1924;-54
2022/03/01 08:53:54;;;;;;;;;;;;;;;17.48;25.16;96752.41;10342304;28;1977;-55
2022/03/01 08:58:55;;;;;;;;;;;;;;;17.52;25.09;96754.38;10347025;28;1839;-50
2022/03/01 09:03:56;;;;;;;;;;;;;;;17.44;25.28;96746.03;10351266;28;1777;-52
2022/03/01 09:08:57;;;;;;;;;;;;;;;17.43;25.27;96747.06;10372610;28;1888;-54
2022/03/01 09:13:58;;;;;;;;;;;;;;;17.43;25.26;96744.47;10348302;28;1919;-52
2022/03/01 09:18:58;;;;;;;;;;;;;;;17.36;25.49;96736.72;10373018;28;1849;-53
2022/03/01 09:23:58;;;;;;;;;;;;;;;17.36;25.37;96741.94;10340954;28;1814;-52
2022/03/01 09:28:59;;;;;;;;;;;;;;;17.40;25.42;96735.22;10354335;28;1851;-51
2022/03/01 09:34:00;;;;;;;;;;;;;;;17.39;25.44;96725.78;10350620;28;1999;-52
2022/03/01 09:39:02;;;;;;;;;;;;;;;17.41;25.40;96713.25;10386193;28;1884;-51
2022/03/01 09:44:02;;;;;;;;;;;;;;;17.44;25.45;96704.91;10373785;28;1936;-51
2022/03/01 09:49:05;;;;;;;;;;;;;;;17.42;25.44;96700.91;10344062;28;1947;-52
2022/03/01 09:54:06;;;;;;;;;;;;;;;17.43;25.48;96698.09;10354993;28;1977;-49
2022/03/01 09:59:07;;;;;;;;;;;;;;;17.45;25.54;96692.59;10360463;28;1941;-53
2022/03/01 10:04:08;;;;;;;;;;;;;;;17.42;25.50;96691.25;10348368;28;2236;-54
2022/03/01 10:09:19;;;;;;;;;;;;;;;17.42;25.55;96691.25;10359614;28;1899;-48
2022/03/01 10:14:29;;;;;;;;;;;;;;;17.45;25.47;96698.66;10371071;28;1911;-48
2022/03/01 10:19:30;;;;;;;;;;;;;;;17.44;25.54;96688.38;10377569;28;1812;-52
2022/03/01 10:24:30;;;;;;;;;;;;;;;17.43;25.59;96673.69;10374585;28;1860;-47
2022/03/01 10:29:31;;;;;;;;;;;;;;;17.45;25.53;96685.53;10337853;28;1911;-51
2022/03/01 10:34:31;;;;;;;;;;;;;;;17.37;25.56;96664.13;10344518;28;1982;-50
2022/03/01 10:39:33;;;;;;;;;;;;;;;17.38;25.65;96658.66;10355191;28;1840;-51
2022/03/01 10:44:34;;;;;;;;;;;;;;;17.36;25.76;96665.94;10368306;28;1819;-52
2022/03/01 10:49:35;;;;;;;;;;;;;;;17.37;25.68;96648.41;10366208;28;1830;-51
2022/03/01 10:54:37;;;;;;;;;;;;;;;17.34;25.78;96641.81;10346911;28;1990;-52
2022/03/01 10:59:38;;;;;;;;;;;;;;;17.34;25.76;96633.13;10344645;28;1902;-53
2022/03/01 11:04:38;;;;;;;;;;;;;;;17.28;25.83;96621.75;10340325;28;1926;-51
2022/03/01 11:09:39;;;;;;;;;;;;;;;17.30;25.85;96605.81;10360113;28;1885;-52
2022/03/01 11:14:41;;;;;;;;;;;;;;;17.33;25.83;96603.50;10358832;28;1981;-52
2022/03/01 11:19:53;;;;;;;;;;;;;;;17.32;25.83;96595.88;10368530;28;1851;-52
2022/03/01 11:24:54;;;;;;;;;;;;;;;17.31;25.90;96587.22;10366347;28;1819;-51
2022/03/01 11:30:07;;;;;;;;;;;;;;;17.32;25.92;96575.72;10360010;28;1856;-53
2022/03/01 11:35:14;;;;;;;;;;;;;;;17.30;25.90;96564.69;10468311;23;1962;-53
2022/03/01 11:40:22;;;;;;;;;;;;;;;17.30;25.93;96562.06;10463065;28;1947;-52
2022/03/01 11:45:31;;;;;;;;;;;;;;;17.31;25.90;96547.91;10480577;28;1864;-55
2022/03/01 11:50:31;;;;;;;;;;;;;;;17.36;25.94;96547.22;10481886;28;1872;-56
2022/03/01 11:55:33;;;;;;;;;;;;;;;17.33;26.00;96531.97;10471845;28;1960;-55
2022/03/01 12:00:34;;;;;;;;;;;;;;;17.31;26.04;96528.78;10460513;28;1849;-56
2022/03/01 12:05:35;;;;;;;;;;;;;;;17.29;26.07;96536.09;10477466;28;1777;-55
2022/03/01 12:10:35;;;;;;;;;;;;;;;17.32;25.90;96536.41;10463098;28;1905;-54
2022/03/01 12:15:37;;;;;;;;;;;;;;;17.28;26.13;96521.38;10488832;28;1913;-56
2022/03/01 12:20:38;;;;;;;;;;;;;;;17.31;25.95;96513.06;10465514;28;1844;-56
2022/03/01 12:25:39;;;;;;;;;;;;;;;17.32;26.03;96504.97;10472490;28;2015;-56
2022/03/01 12:30:41;;;;;;;;;;;;;;;17.27;26.24;96499.63;10477840;28;1925;-54
2022/03/01 12:35:42;;;;;;;;;;;;;;;17.30;26.19;96496.56;10461893;28;1958;-56
2022/03/01 12:40:42;;;;;;;;;;;;;;;17.30;26.12;96485.25;10461570;28;1817;-55
2022/03/01 12:45:44;;;;;;;;;;;;;;;17.31;26.18;96490.25;10480961;28;1836;-54
2022/03/01 12:50:44;;;;;;;;;;;;;;;17.30;26.19;96480.03;10464288;28;1854;-55
2022/03/01 12:55:49;;;;;;;;;;;;;;;17.31;26.33;96486.88;10461019;28;1910;-56
2022/03/01 13:00:49;;;;;;;;;;;;;;;17.33;26.27;96488.19;10456525;28;1818;-53
2022/03/01 13:05:50;;;;;;;;;;;;;;;17.36;26.17;96489.56;10477591;28;1833;-51
2022/03/01 13:10:52;;;;;;;;;;;;;;;17.35;26.31;96482.75;10471074;28;1884;-54
2022/03/01 13:15:53;;;;;;;;;;;;;;;17.46;26.09;96492.38;10476790;28;1918;-59
2022/03/01 13:20:54;;;;;;;;;;;;;;;17.58;25.89;96488.69;10453251;28;1880;-52
2022/03/01 13:25:54;;;;;;;;;;;;;;;17.68;25.83;96488.84;10464556;28;1834;-54
2022/03/01 13:30:54;;;;;;;;;;;;;;;17.80;25.81;96484.31;10442206;28;1911;-56
2022/03/01 13:35:55;;;;;;;;;;;;;;;17.98;25.58;96482.50;10462316;28;1990;-54
2022/03/01 13:40:55;;;;;;;;;;;;;;;18.04;25.42;96481.56;10470819;28;1795;-53
2022/03/01 13:45:57;;;;;;;;;;;;;;;17.96;25.58;96487.19;10474319;28;1850;-56
2022/03/01 13:51:06;;;;;;;;;;;;;;;18.38;25.04;96472.63;10468819;28;1815;-53
2022/03/01 13:56:07;;;;;;;;;;;;;;;18.87;24.42;96474.31;10465668;28;1990;-54
2022/03/01 14:01:08;;;;;;;;;;;;;;;18.97;24.30;96474.44;10495424;28;2311;-54
2022/03/01 14:06:09;;;;;;;;;;;;;;;18.40;24.72;96481.81;10467482;28;1760;-52
2022/03/01 14:11:13;;;;;;;;;;;;;;;18.00;25.31;96478.63;10466752;28;2282;-55
2022/03/01 14:16:18;;;;;;;;;;;;;;;17.81;25.76;96477.25;10463195;28;1910;-55
2022/03/01 14:21:20;;;;;;;;;;;;;;;17.63;26.01;96483.53;10482994;28;1840;-53
2022/03/01 14:26:20;;;;;;;;;;;;;;;17.60;26.04;96478.75;10473551;28;1873;-53
2022/03/01 14:31:20;;;;;;;;;;;;;;;17.53;26.23;96483.38;10469423;28;1850;-56
2022/03/01 14:36:22;;;;;;;;;;;;;;;17.51;26.27;96474.94;10482103;28;2024;-54
2022/03/01 14:41:23;;;;;;;;;;;;;;;17.51;26.14;96474.16;10470696;28;1931;-54
2022/03/01 14:46:24;;;;;;;;;;;;;;;17.48;26.25;96477.19;10462000;28;1847;-52
2022/03/01 14:51:24;;;;;;;;;;;;;;;17.47;26.30;96471.19;10468213;28;1838;-55
2022/03/01 14:56:25;;;;;;;;;;;;;;;17.45;26.21;96462.75;10464872;28;1979;-51
2022/03/01 15:01:25;;;;;;;;;;;;;;;17.48;26.29;96478.00;10475590;28;1901;-52
2022/03/01 15:06:25;;;;;;;;;;;;;;;17.45;26.24;96478.47;10461969;28;1866;-52
2022/03/01 15:11:26;;;;;;;;;;;;;;;17.41;26.40;96472.13;10461118;28;1853;-56
2022/03/01 15:16:26;;;;;;;;;;;;;;;17.42;26.24;96465.84;10490875;28;1977;-53
2022/03/01 15:21:26;;;;;;;;;;;;;;;17.39;26.25;96476.81;10462949;28;1750;-52
2022/03/01 15:26:27;;;;;;;;;;;;;;;17.39;26.31;96476.81;10477786;28;1934;-52
2022/03/01 15:31:27;;;;;;;;;;;;;;;17.40;26.39;96486.25;10459103;28;1869;-53
2022/03/01 15:36:28;;;;;;;;;;;;;;;17.38;26.22;96477.81;10463768;28;1971;-54
2022/03/01 15:41:28;;;;;;;;;;;;;;;17.37;26.41;96485.94;10490186;28;1847;-52
2022/03/01 15:46:29;;;;;;;;;;;;;;;17.38;26.26;96487.50;10458731;28;1854;-54
2022/03/01 15:51:29;;;;;;;;;;;;;;;17.37;26.35;96486.69;10489359;28;1861;-54
2022/03/01 15:56:30;;;;;;;;;;;;;;;17.41;26.28;96490.47;10454909;28;2037;-54
2022/03/01 16:01:32;;;;;;;;;;;;;;;17.41;26.15;96495.72;10478870;28;1846;-54
2022/03/01 16:06:33;;;;;;;;;;;;;;;17.40;26.04;96491.50;10476213;28;1844;-56
2022/03/01 16:11:34;;;;;;;;;;;;;;;17.41;26.21;96493.09;10457398;28;1878;-54
2022/03/01 16:16:34;;;;;;;;;;;;;;;17.41;26.26;96482.59;10454680;28;1917;-55
2022/03/01 16:21:34;;;;;;;;;;;;;;;17.42;26.18;96478.94;10490862;28;1797;-53
2022/03/01 16:26:35;;;;;;;;;;;;;;;17.39;26.13;96479.44;10468990;28;1852;-53
2022/03/01 16:31:35;;;;;;;;;;;;;;;17.39;26.09;96473.38;10450906;28;2062;-54
2022/03/01 16:36:35;;;;;;;;;;;;;;;17.36;26.11;96477.25;10457798;28;1906;-52
2022/03/01 16:41:36;;;;;;;;;;;;;;;17.36;26.12;96477.25;10454494;28;1892;-56
2022/03/01 16:46:37;;;;;;;;;;;;;;;17.37;26.30;96481.47;10456778;28;1878;-54
2022/03/01 16:51:38;;;;;;;;;;;;;;;17.40;26.17;96481.00;10485064;28;2009;-52
2022/03/01 16:56:40;;;;;;;;;;;;;;;17.38;26.03;96480.44;10454640;28;1973;-51
2022/03/01 17:01:41;;;;;;;;;;;;;;;17.38;26.11;96477.81;10472627;28;2226;-55
2022/03/01 17:06:42;;;;;;;;;;;;;;;17.36;25.98;96490.38;10470652;28;1920;-54
2022/03/01 17:11:42;;;;;;;;;;;;;;;17.38;26.02;96496.16;10469226;28;1824;-54
2022/03/01 17:16:43;;;;;;;;;;;;;;;17.35;26.03;96493.22;10474367;28;1927;-56
2022/03/01 17:21:43;;;;;;;;;;;;;;;17.37;25.92;96509.50;10477639;28;1847;-52
2022/03/01 17:26:44;;;;;;;;;;;;;;;17.37;25.95;96512.13;10457264;28;1837;-55
2022/03/01 17:31:44;;;;;;;;;;;;;;;17.38;25.83;96517.13;10462559;28;1845;-53
2022/03/01 17:36:45;;;;;;;;;;;;;;;17.37;26.00;96520.78;10499070;23;1977;-72
2022/03/01 17:41:46;;;;;;;;;;;;;;;17.37;26.04;96528.63;10455915;28;1922;-73
2022/03/01 17:46:46;;;;;;;;;;;;;;;17.36;26.03;96532.28;10472837;28;1870;-72
2022/03/01 17:51:46;;;;;;;;;;;;;;;17.37;26.00;96528.63;10462247;22;1950;-52
2022/03/01 17:56:47;;;;;;;;;;;;;;;17.42;25.89;96533.19;10419275;28;1910;-51
2022/03/01 18:01:47;;;;;;;;;;;;;;;17.37;25.92;96526.00;10424688;28;1916;-51
2022/03/01 18:06:47;;;;;;;;;;;;;;;17.32;25.99;96525.13;10422242;28;1909;-53
2022/03/01 18:11:54;;;;;;;;;;;;;;;17.37;26.02;96533.88;10427626;28;1786;-51
2022/03/01 18:16:54;;;;;;;;;;;;;;;17.35;25.83;96522.81;10423790;28;1906;-51
2022/03/01 18:21:55;;;;;;;;;;;;;;;17.37;25.94;96527.84;10438584;28;2087;-52
2022/03/01 18:26:56;;;;;;;;;;;;;;;17.36;25.91;96526.25;10424295;28;1800;-52
2022/03/01 18:31:57;;;;;;;;;;;;;;;17.35;26.01;96519.44;10422124;28;1814;-52
2022/03/01 18:36:57;;;;;;;;;;;;;;;17.38;25.90;96513.72;10423929;28;1929;-49
2022/03/01 18:41:58;;;;;;;;;;;;;;;17.35;25.82;96514.97;10418968;28;2125;-49
2022/03/01 18:46:58;;;;;;;;;;;;;;;17.39;25.87;96523.19;10425203;28;1790;-49
2022/03/01 18:51:58;;;;;;;;;;;;;;;17.36;25.96;96511.34;10439105;28;1888;-49
2022/03/01 18:56:59;;;;;;;;;;;;;;;17.38;25.88;96518.94;10425921;28;1910;-51
2022/03/01 19:02:01;;;;;;;;;;;;;;;17.40;25.82;96512.44;10421246;28;1692;-52
2022/03/01 19:07:02;;;;;;;;;;;;;;;17.42;25.77;96505.16;10439531;28;1872;-51
2022/03/01 19:12:03;;;;;;;;;;;;;;;17.38;25.74;96503.22;10437876;28;1839;-48
2022/03/01 19:17:03;;;;;;;;;;;;;;;17.34;25.90;96508.16;10443200;28;1910;-50
2022/03/01 19:22:04;;;;;;;;;;;;;;;17.38;25.87;96505.84;10416349;28;1771;-51
2022/03/01 19:27:05;;;;;;;;;;;;;;;17.38;25.82;96505.84;10419808;28;1784;-49
2022/03/01 19:32:06;;;;;;;;;;;;;;;17.40;25.75;96514.28;10435027;28;1775;-52
2022/03/01 19:37:06;;;;;;;;;;;;;;;17.37;25.82;96520.78;10405935;28;1906;-51
2022/03/01 19:42:07;;;;;;;;;;;;;;;17.36;25.83;96515.78;10420056;28;2299;-49
2022/03/01 19:47:07;;;;;;;;;;;;;;;17.36;25.82;96515.78;10425841;28;1852;-51
2022/03/01 19:52:08;;;;;;;;;;;;;;;17.35;25.78;96509.72;10434463;28;1662;-50
2022/03/01 19:57:08;;;;;;;;;;;;;;;17.35;25.66;96512.34;10421066;28;1898;-51
2022/03/01 20:02:10;;;;;;;;;;;;;;;17.35;25.82;96506.34;10421773;28;1793;-52
2022/03/01 20:07:10;;;;;;;;;;;;;;;17.32;25.77;96502.34;10417061;28;1909;-48
2022/03/01 20:12:10;;;;;;;;;;;;;;;17.37;25.74;96506.91;10437629;28;1757;-50
2022/03/01 20:17:12;;;;;;;;;;;;;;;17.33;25.81;96511.78;10436534;28;1906;-54
2022/03/01 20:22:12;;;;;;;;;;;;;;;17.32;25.68;96512.84;10436077;28;1773;-50
2022/03/01 20:27:12;;;;;;;;;;;;;;;17.33;25.81;96508.41;10439225;28;1791;-51
2022/03/01 20:32:13;;;;;;;;;;;;;;;17.33;25.72;96505.78;10411348;28;1809;-52
2022/03/01 20:37:14;;;;;;;;;;;;;;;17.31;25.75;96503.38;10434691;28;1917;-49
2022/03/01 20:42:14;;;;;;;;;;;;;;;17.34;25.69;96504.72;10433654;28;2044;-51
2022/03/01 20:47:15;;;;;;;;;;;;;;;17.35;25.61;96504.47;10420498;28;1879;-51
2022/03/01 20:52:15;;;;;;;;;;;;;;;17.36;25.61;96494.81;10417860;28;1804;-51
2022/03/01 20:57:15;;;;;;;;;;;;;;;17.38;25.59;96475.19;10426183;28;1902;-52
2022/03/01 21:02:16;;;;;;;;;;;;;;;17.38;25.51;96472.59;10427997;28;1779;-47
2022/03/01 21:07:16;;;;;;;;;;;;;;;17.34;25.58;96463.59;10425980;28;1960;-49
2022/03/01 21:12:17;;;;;;;;;;;;;;;17.38;25.62;96469.97;10444136;28;1782;-49
2022/03/01 21:17:17;;;;;;;;;;;;;;;17.37;25.64;96465.75;10421363;28;1969;-54
2022/03/01 21:22:18;;;;;;;;;;;;;;;17.34;25.67;96462.81;10437724;28;2136;-52
2022/03/01 21:27:18;;;;;;;;;;;;;;;17.35;25.62;96464.41;10421960;28;2245;-53
2022/03/01 21:32:20;;;;;;;;;;;;;;;17.36;25.67;96458.13;10421407;28;2343;-50
2022/03/01 21:37:20;;;;;;;;;;;;;;;17.34;25.57;96455.75;10445106;28;2199;-50
2022/03/01 21:42:20;;;;;;;;;;;;;;;17.30;25.59;96459.88;10443956;28;1959;-54
2022/03/01 21:47:21;;;;;;;;;;;;;;;17.33;25.58;96437.66;10429892;28;1853;-49
2022/03/01 21:52:21;;;;;;;;;;;;;;;17.36;25.64;96437.16;10445805;28;1849;-51
2022/03/01 21:57:22;;;;;;;;;;;;;;;17.35;25.49;96435.59;10428542;28;1960;-49
2022/03/01 22:02:22;;;;;;;;;;;;;;;17.34;25.46;96428.72;10444226;28;1859;-51
2022/03/01 22:07:22;;;;;;;;;;;;;;;17.37;25.50;96444.78;10439914;28;1913;-54
2022/03/01 22:12:23;;;;;;;;;;;;;;;17.32;25.66;96428.97;10438963;28;1816;-50
2022/03/01 22:17:23;;;;;;;;;;;;;;;17.31;25.39;96413.50;10423999;28;1967;-54
2022/03/01 22:22:24;;;;;;;;;;;;;;;17.31;25.56;96419.50;10426156;28;1736;-49
2022/03/01 22:27:25;;;;;;;;;;;;;;;17.35;25.40;96425.09;10427173;28;1859;-52
2022/03/01 22:32:26;;;;;;;;;;;;;;;17.36;25.36;96429.28;10440508;28;1969;-50
2022/03/01 22:37:26;;;;;;;;;;;;;;;17.31;25.58;96421.38;10408698;28;1906;-49
2022/03/01 22:42:28;;;;;;;;;;;;;;;17.32;25.44;96426.34;10415757;28;1870;-49
2022/03/01 22:47:28;;;;;;;;;;;;;;;17.36;25.31;96422.22;10425561;28;2007;-50
2022/03/01 22:52:29;;;;;;;;;;;;;;;17.38;25.38;96414.94;10442021;28;1837;-50
2022/03/01 22:57:30;;;;;;;;;;;;;;;17.36;25.42;96411.75;10422781;28;1965;-50
2022/03/01 23:02:31;;;;;;;;;;;;;;;17.34;25.39;96411.19;10443644;28;1841;-50
2022/03/01 23:07:33;;;;;;;;;;;;;;;17.35;25.39;96415.38;10440510;28;1921;-49
2022/03/01 23:12:33;;;;;;;;;;;;;;;17.35;25.38;96410.16;10437606;28;1889;-54
2022/03/01 23:17:33;;;;;;;;;;;;;;;17.37;25.35;96409.94;10423565;28;1961;-52
2022/03/01 23:22:37;;;;;;;;;;;;;;;17.34;25.36;96411.19;10418822;28;1780;-52
2022/03/01 23:27:37;;;;;;;;;;;;;;;17.31;25.43;96414.28;10404864;28;1903;-48
2022/03/01 23:32:38;;;;;;;;;;;;;;;17.36;25.35;96410.94;10434206;28;1917;-54
2022/03/01 23:37:39;;;;;;;;;;;;;;;17.32;25.31;96415.06;10440026;28;1973;-51
2022/03/01 23:42:40;;;;;;;;;;;;;;;17.33;25.38;96408.81;10438986;28;1888;-48
2022/03/01 23:47:41;;;;;;;;;;;;;;;17.31;25.32;96409.03;10477047;22;1818;-68
2022/03/01 23:52:41;;;;;;;;;;;;;;;17.31;25.32;96403.78;10444802;28;1925;-67
2022/03/01 23:57:41;;;;;;;;;;;;;;;17.30;25.31;96407.47;10458460;23;3504;-54
